sensor_id;sensor_type;location;lat;lon;timestamp;P1;durP1;ratioP1;P2;durP2;ratioP2
52104;SDS011;38103;42.776;23.112;2023-12-07T00:01:25;42.08;;;27.67;;
52104;SDS011;38103;42.776;23.112;2023-12-07T00:03:50;48.47;;;30.33;;
52104;SDS011;38103;42.776;23.112;2023-12-07T00:06:16;45.05;;;29.88;;
52104;SDS011;38103;42.776;23.112;2023-12-07T00:08:41;50.67;;;32.08;;
52104;SDS011;38103;42.776;23.112;2023-12-07T00:11:06;49.65;;;30.20;;
52104;SDS011;38103;42.776;23.112;2023-12-07T00:13:32;48.05;;;29.42;;
52104;SDS011;38103;42.776;23.112;2023-12-07T00:15:57;55.20;;;30.35;;
52104;SDS011;38103;42.776;23.112;2023-12-07T00:18:23;48.50;;;31.15;;
52104;SDS011;38103;42.776;23.112;2023-12-07T00:20:48;59.40;;;35.47;;
52104;SDS011;38103;42.776;23.112;2023-12-07T00:23:14;52.28;;;31.73;;
52104;SDS011;38103;42.776;23.112;2023-12-07T00:25:39;52.33;;;32.20;;
52104;SDS011;38103;42.776;23.112;2023-12-07T00:28:05;54.35;;;32.65;;
52104;SDS011;38103;42.776;23.112;2023-12-07T00:30:30;50.40;;;32.20;;
52104;SDS011;38103;42.776;23.112;2023-12-07T00:32:55;50.05;;;32.08;;
52104;SDS011;38103;42.776;23.112;2023-12-07T00:35:21;50.20;;;31.58;;
52104;SDS011;38103;42.776;23.112;2023-12-07T00:37:49;47.47;;;30.02;;
52104;SDS011;38103;42.776;23.112;2023-12-07T00:40:14;45.63;;;28.63;;
52104;SDS011;38103;42.776;23.112;2023-12-07T00:42:40;40.83;;;25.75;;
52104;SDS011;38103;42.776;23.112;2023-12-07T00:45:05;46.78;;;29.08;;
52104;SDS011;38103;42.776;23.112;2023-12-07T00:47:31;48.10;;;28.05;;
52104;SDS011;38103;42.776;23.112;2023-12-07T00:49:56;42.08;;;26.33;;
52104;SDS011;38103;42.776;23.112;2023-12-07T00:52:22;42.65;;;26.33;;
52104;SDS011;38103;42.776;23.112;2023-12-07T00:54:47;39.65;;;25.55;;
52104;SDS011;38103;42.776;23.112;2023-12-07T00:57:12;39.13;;;23.90;;
52104;SDS011;38103;42.776;23.112;2023-12-07T00:59:38;39.38;;;25.05;;
52104;SDS011;38103;42.776;23.112;2023-12-07T01:02:03;42.25;;;26.15;;
52104;SDS011;38103;42.776;23.112;2023-12-07T01:04:29;40.65;;;25.13;;
52104;SDS011;38103;42.776;23.112;2023-12-07T01:06:56;38.25;;;25.17;;
52104;SDS011;38103;42.776;23.112;2023-12-07T01:09:21;39.15;;;23.55;;
52104;SDS011;38103;42.776;23.112;2023-12-07T01:11:48;64.25;;;36.45;;
52104;SDS011;38103;42.776;23.112;2023-12-07T01:14:14;70.65;;;41.13;;
52104;SDS011;38103;42.776;23.112;2023-12-07T01:16:39;54.63;;;34.25;;
52104;SDS011;38103;42.776;23.112;2023-12-07T01:19:05;44.13;;;29.67;;
52104;SDS011;38103;42.776;23.112;2023-12-07T01:21:32;43.13;;;28.00;;
52104;SDS011;38103;42.776;23.112;2023-12-07T01:23:57;41.63;;;28.08;;
52104;SDS011;38103;42.776;23.112;2023-12-07T01:26:23;42.03;;;26.23;;
52104;SDS011;38103;42.776;23.112;2023-12-07T01:28:48;39.08;;;25.05;;
52104;SDS011;38103;42.776;23.112;2023-12-07T01:31:14;40.00;;;25.40;;
52104;SDS011;38103;42.776;23.112;2023-12-07T01:33:39;41.45;;;26.13;;
52104;SDS011;38103;42.776;23.112;2023-12-07T01:36:05;43.50;;;25.70;;
52104;SDS011;38103;42.776;23.112;2023-12-07T01:38:30;44.72;;;28.52;;
52104;SDS011;38103;42.776;23.112;2023-12-07T01:40:56;39.28;;;24.80;;
52104;SDS011;38103;42.776;23.112;2023-12-07T01:43:22;38.80;;;25.83;;
52104;SDS011;38103;42.776;23.112;2023-12-07T01:45:48;37.97;;;23.95;;
52104;SDS011;38103;42.776;23.112;2023-12-07T01:48:18;41.17;;;26.27;;
52104;SDS011;38103;42.776;23.112;2023-12-07T01:50:44;41.28;;;27.13;;
52104;SDS011;38103;42.776;23.112;2023-12-07T01:53:11;38.03;;;25.23;;
52104;SDS011;38103;42.776;23.112;2023-12-07T01:55:37;43.45;;;28.67;;
52104;SDS011;38103;42.776;23.112;2023-12-07T01:58:03;45.72;;;31.63;;
52104;SDS011;38103;42.776;23.112;2023-12-07T02:00:29;46.10;;;28.65;;
52104;SDS011;38103;42.776;23.112;2023-12-07T02:02:55;41.05;;;25.88;;
52104;SDS011;38103;42.776;23.112;2023-12-07T02:05:21;42.28;;;26.48;;
52104;SDS011;38103;42.776;23.112;2023-12-07T02:07:48;39.10;;;25.23;;
52104;SDS011;38103;42.776;23.112;2023-12-07T02:10:14;39.80;;;26.58;;
52104;SDS011;38103;42.776;23.112;2023-12-07T02:12:40;45.22;;;29.70;;
52104;SDS011;38103;42.776;23.112;2023-12-07T02:15:06;50.78;;;30.10;;
52104;SDS011;38103;42.776;23.112;2023-12-07T02:17:36;48.03;;;30.90;;
52104;SDS011;38103;42.776;23.112;2023-12-07T02:20:23;46.88;;;30.10;;
52104;SDS011;38103;42.776;23.112;2023-12-07T02:22:54;48.25;;;28.95;;
52104;SDS011;38103;42.776;23.112;2023-12-07T02:28:17;42.10;;;25.95;;
52104;SDS011;38103;42.776;23.112;2023-12-07T02:30:43;45.60;;;25.98;;
52104;SDS011;38103;42.776;23.112;2023-12-07T02:33:08;43.90;;;25.88;;
52104;SDS011;38103;42.776;23.112;2023-12-07T02:35:35;47.47;;;27.88;;
52104;SDS011;38103;42.776;23.112;2023-12-07T02:38:01;46.38;;;27.25;;
52104;SDS011;38103;42.776;23.112;2023-12-07T02:40:28;45.50;;;27.95;;
52104;SDS011;38103;42.776;23.112;2023-12-07T02:42:55;44.13;;;27.13;;
52104;SDS011;38103;42.776;23.112;2023-12-07T02:45:22;46.13;;;28.58;;
52104;SDS011;38103;42.776;23.112;2023-12-07T02:47:47;46.92;;;28.00;;
52104;SDS011;38103;42.776;23.112;2023-12-07T02:50:13;53.35;;;32.92;;
52104;SDS011;38103;42.776;23.112;2023-12-07T02:52:38;53.88;;;30.58;;
52104;SDS011;38103;42.776;23.112;2023-12-07T02:55:04;46.47;;;29.10;;
52104;SDS011;38103;42.776;23.112;2023-12-07T02:57:30;55.42;;;31.83;;
52104;SDS011;38103;42.776;23.112;2023-12-07T02:59:58;58.60;;;35.13;;
52104;SDS011;38103;42.776;23.112;2023-12-07T03:02:24;54.50;;;31.98;;
52104;SDS011;38103;42.776;23.112;2023-12-07T03:04:50;45.78;;;27.70;;
52104;SDS011;38103;42.776;23.112;2023-12-07T03:07:15;46.78;;;27.55;;
52104;SDS011;38103;42.776;23.112;2023-12-07T03:09:41;47.53;;;28.77;;
52104;SDS011;38103;42.776;23.112;2023-12-07T03:12:06;44.50;;;27.00;;
52104;SDS011;38103;42.776;23.112;2023-12-07T03:14:32;41.97;;;26.83;;
52104;SDS011;38103;42.776;23.112;2023-12-07T03:16:57;42.83;;;25.60;;
52104;SDS011;38103;42.776;23.112;2023-12-07T03:19:23;40.85;;;23.90;;
52104;SDS011;38103;42.776;23.112;2023-12-07T03:21:48;37.65;;;23.27;;
52104;SDS011;38103;42.776;23.112;2023-12-07T03:24:14;38.08;;;23.90;;
52104;SDS011;38103;42.776;23.112;2023-12-07T03:26:39;35.42;;;22.17;;
52104;SDS011;38103;42.776;23.112;2023-12-07T03:29:05;39.38;;;24.00;;
52104;SDS011;38103;42.776;23.112;2023-12-07T03:31:30;38.80;;;22.95;;
52104;SDS011;38103;42.776;23.112;2023-12-07T03:33:56;36.70;;;22.08;;
52104;SDS011;38103;42.776;23.112;2023-12-07T03:36:22;37.08;;;21.25;;
52104;SDS011;38103;42.776;23.112;2023-12-07T03:38:48;38.83;;;23.85;;
52104;SDS011;38103;42.776;23.112;2023-12-07T03:41:14;37.92;;;22.98;;
52104;SDS011;38103;42.776;23.112;2023-12-07T03:43:40;36.95;;;21.65;;
52104;SDS011;38103;42.776;23.112;2023-12-07T03:46:06;35.50;;;21.67;;
52104;SDS011;38103;42.776;23.112;2023-12-07T03:48:32;33.05;;;20.10;;
52104;SDS011;38103;42.776;23.112;2023-12-07T03:50:58;32.70;;;19.90;;
52104;SDS011;38103;42.776;23.112;2023-12-07T03:53:24;34.72;;;20.13;;
52104;SDS011;38103;42.776;23.112;2023-12-07T03:55:49;34.05;;;20.02;;
52104;SDS011;38103;42.776;23.112;2023-12-07T03:58:15;33.35;;;19.38;;
52104;SDS011;38103;42.776;23.112;2023-12-07T04:00:40;31.02;;;20.35;;
52104;SDS011;38103;42.776;23.112;2023-12-07T04:03:06;31.17;;;18.92;;
52104;SDS011;38103;42.776;23.112;2023-12-07T04:05:31;32.75;;;19.67;;
52104;SDS011;38103;42.776;23.112;2023-12-07T04:07:57;35.60;;;20.38;;
52104;SDS011;38103;42.776;23.112;2023-12-07T04:10:22;32.22;;;19.20;;
52104;SDS011;38103;42.776;23.112;2023-12-07T04:12:48;36.65;;;21.30;;
52104;SDS011;38103;42.776;23.112;2023-12-07T04:15:13;35.33;;;20.83;;
52104;SDS011;38103;42.776;23.112;2023-12-07T04:17:39;34.08;;;20.20;;
52104;SDS011;38103;42.776;23.112;2023-12-07T04:20:04;30.55;;;18.45;;
52104;SDS011;38103;42.776;23.112;2023-12-07T04:22:31;30.48;;;17.85;;
52104;SDS011;38103;42.776;23.112;2023-12-07T04:24:56;28.95;;;18.17;;
52104;SDS011;38103;42.776;23.112;2023-12-07T04:27:22;30.20;;;19.65;;
52104;SDS011;38103;42.776;23.112;2023-12-07T04:29:47;30.50;;;17.73;;
52104;SDS011;38103;42.776;23.112;2023-12-07T04:32:12;31.65;;;18.33;;
52104;SDS011;38103;42.776;23.112;2023-12-07T04:34:38;30.88;;;19.75;;
52104;SDS011;38103;42.776;23.112;2023-12-07T04:37:03;29.05;;;17.42;;
52104;SDS011;38103;42.776;23.112;2023-12-07T04:39:29;30.92;;;17.27;;
52104;SDS011;38103;42.776;23.112;2023-12-07T04:41:54;30.75;;;18.17;;
52104;SDS011;38103;42.776;23.112;2023-12-07T04:44:20;30.50;;;18.30;;
52104;SDS011;38103;42.776;23.112;2023-12-07T04:46:45;33.33;;;18.85;;
52104;SDS011;38103;42.776;23.112;2023-12-07T04:49:10;28.40;;;17.90;;
52104;SDS011;38103;42.776;23.112;2023-12-07T04:51:36;29.27;;;19.10;;
52104;SDS011;38103;42.776;23.112;2023-12-07T04:54:01;31.00;;;18.77;;
52104;SDS011;38103;42.776;23.112;2023-12-07T04:56:27;31.25;;;20.08;;
52104;SDS011;38103;42.776;23.112;2023-12-07T04:58:52;31.33;;;18.85;;
52104;SDS011;38103;42.776;23.112;2023-12-07T05:01:17;29.92;;;18.73;;
52104;SDS011;38103;42.776;23.112;2023-12-07T05:03:44;31.92;;;19.20;;
52104;SDS011;38103;42.776;23.112;2023-12-07T05:06:09;32.88;;;20.40;;
52104;SDS011;38103;42.776;23.112;2023-12-07T05:08:35;33.42;;;19.92;;
52104;SDS011;38103;42.776;23.112;2023-12-07T05:11:00;35.47;;;20.00;;
52104;SDS011;38103;42.776;23.112;2023-12-07T05:13:26;34.03;;;19.73;;
52104;SDS011;38103;42.776;23.112;2023-12-07T05:15:51;32.63;;;18.92;;
52104;SDS011;38103;42.776;23.112;2023-12-07T05:18:16;29.73;;;18.15;;
52104;SDS011;38103;42.776;23.112;2023-12-07T05:20:42;30.65;;;18.20;;
52104;SDS011;38103;42.776;23.112;2023-12-07T05:23:08;28.05;;;17.70;;
52104;SDS011;38103;42.776;23.112;2023-12-07T05:25:33;31.30;;;17.40;;
52104;SDS011;38103;42.776;23.112;2023-12-07T05:27:59;29.23;;;16.30;;
52104;SDS011;38103;42.776;23.112;2023-12-07T05:30:24;28.73;;;17.60;;
52104;SDS011;38103;42.776;23.112;2023-12-07T05:32:50;30.48;;;18.70;;
52104;SDS011;38103;42.776;23.112;2023-12-07T05:35:15;31.40;;;17.73;;
52104;SDS011;38103;42.776;23.112;2023-12-07T05:37:41;31.35;;;18.38;;
52104;SDS011;38103;42.776;23.112;2023-12-07T05:40:07;29.17;;;18.70;;
52104;SDS011;38103;42.776;23.112;2023-12-07T05:42:33;33.78;;;19.08;;
52104;SDS011;38103;42.776;23.112;2023-12-07T05:44:58;32.80;;;19.90;;
52104;SDS011;38103;42.776;23.112;2023-12-07T05:47:24;33.28;;;20.10;;
52104;SDS011;38103;42.776;23.112;2023-12-07T05:49:51;36.80;;;19.90;;
52104;SDS011;38103;42.776;23.112;2023-12-07T05:52:16;33.60;;;20.80;;
52104;SDS011;38103;42.776;23.112;2023-12-07T05:54:41;30.67;;;18.42;;
52104;SDS011;38103;42.776;23.112;2023-12-07T05:57:12;35.72;;;19.75;;
52104;SDS011;38103;42.776;23.112;2023-12-07T05:59:38;31.63;;;19.20;;
52104;SDS011;38103;42.776;23.112;2023-12-07T06:02:04;34.33;;;18.77;;
52104;SDS011;38103;42.776;23.112;2023-12-07T06:04:29;34.40;;;18.92;;
52104;SDS011;38103;42.776;23.112;2023-12-07T06:06:55;34.38;;;18.60;;
52104;SDS011;38103;42.776;23.112;2023-12-07T06:09:21;31.60;;;18.50;;
52104;SDS011;38103;42.776;23.112;2023-12-07T06:11:46;33.72;;;18.50;;
52104;SDS011;38103;42.776;23.112;2023-12-07T06:14:11;29.92;;;17.42;;
52104;SDS011;38103;42.776;23.112;2023-12-07T06:16:37;30.15;;;17.92;;
52104;SDS011;38103;42.776;23.112;2023-12-07T06:19:02;27.00;;;16.58;;
52104;SDS011;38103;42.776;23.112;2023-12-07T06:21:28;27.42;;;16.05;;
52104;SDS011;38103;42.776;23.112;2023-12-07T06:23:55;25.40;;;16.27;;
52104;SDS011;38103;42.776;23.112;2023-12-07T06:26:20;25.30;;;15.68;;
52104;SDS011;38103;42.776;23.112;2023-12-07T06:28:46;26.73;;;14.90;;
52104;SDS011;38103;42.776;23.112;2023-12-07T06:31:12;27.83;;;15.40;;
52104;SDS011;38103;42.776;23.112;2023-12-07T06:33:40;26.88;;;14.95;;
52104;SDS011;38103;42.776;23.112;2023-12-07T06:36:06;21.70;;;12.80;;
52104;SDS011;38103;42.776;23.112;2023-12-07T06:38:32;22.92;;;12.73;;
52104;SDS011;38103;42.776;23.112;2023-12-07T06:40:57;18.70;;;11.00;;
52104;SDS011;38103;42.776;23.112;2023-12-07T06:43:23;17.85;;;10.77;;
52104;SDS011;38103;42.776;23.112;2023-12-07T06:45:48;16.67;;;10.27;;
52104;SDS011;38103;42.776;23.112;2023-12-07T06:48:13;17.77;;;10.25;;
52104;SDS011;38103;42.776;23.112;2023-12-07T06:50:39;16.50;;;9.52;;
52104;SDS011;38103;42.776;23.112;2023-12-07T06:53:04;15.88;;;8.57;;
52104;SDS011;38103;42.776;23.112;2023-12-07T06:55:30;15.15;;;8.68;;
52104;SDS011;38103;42.776;23.112;2023-12-07T06:57:55;18.42;;;8.18;;
52104;SDS011;38103;42.776;23.112;2023-12-07T07:00:21;13.82;;;7.75;;
52104;SDS011;38103;42.776;23.112;2023-12-07T07:02:46;13.20;;;6.70;;
52104;SDS011;38103;42.776;23.112;2023-12-07T07:05:12;13.80;;;7.63;;
52104;SDS011;38103;42.776;23.112;2023-12-07T07:07:37;13.98;;;7.57;;
52104;SDS011;38103;42.776;23.112;2023-12-07T07:10:03;14.30;;;7.97;;
52104;SDS011;38103;42.776;23.112;2023-12-07T07:12:29;13.60;;;7.68;;
52104;SDS011;38103;42.776;23.112;2023-12-07T07:14:55;14.95;;;7.15;;
52104;SDS011;38103;42.776;23.112;2023-12-07T07:17:21;13.77;;;7.05;;
52104;SDS011;38103;42.776;23.112;2023-12-07T07:19:46;14.95;;;7.43;;
52104;SDS011;38103;42.776;23.112;2023-12-07T07:22:11;14.38;;;7.57;;
52104;SDS011;38103;42.776;23.112;2023-12-07T07:24:37;14.38;;;7.85;;
52104;SDS011;38103;42.776;23.112;2023-12-07T07:27:02;13.23;;;6.80;;
52104;SDS011;38103;42.776;23.112;2023-12-07T07:29:28;14.20;;;7.57;;
52104;SDS011;38103;42.776;23.112;2023-12-07T07:31:53;13.32;;;7.45;;
52104;SDS011;38103;42.776;23.112;2023-12-07T07:34:20;13.77;;;7.43;;
52104;SDS011;38103;42.776;23.112;2023-12-07T07:36:45;13.38;;;6.72;;
52104;SDS011;38103;42.776;23.112;2023-12-07T07:39:11;14.48;;;7.70;;
52104;SDS011;38103;42.776;23.112;2023-12-07T07:41:38;13.70;;;7.60;;
52104;SDS011;38103;42.776;23.112;2023-12-07T07:44:04;15.02;;;7.35;;
52104;SDS011;38103;42.776;23.112;2023-12-07T07:46:30;13.25;;;6.88;;
52104;SDS011;38103;42.776;23.112;2023-12-07T07:48:55;12.85;;;6.45;;
52104;SDS011;38103;42.776;23.112;2023-12-07T07:51:20;14.65;;;7.25;;
52104;SDS011;38103;42.776;23.112;2023-12-07T07:53:46;12.13;;;6.22;;
52104;SDS011;38103;42.776;23.112;2023-12-07T07:56:11;11.25;;;5.95;;
52104;SDS011;38103;42.776;23.112;2023-12-07T07:58:37;11.35;;;5.60;;
52104;SDS011;38103;42.776;23.112;2023-12-07T08:01:02;10.68;;;5.38;;
52104;SDS011;38103;42.776;23.112;2023-12-07T08:03:28;10.88;;;5.32;;
52104;SDS011;38103;42.776;23.112;2023-12-07T08:05:53;11.20;;;5.47;;
52104;SDS011;38103;42.776;23.112;2023-12-07T08:08:19;11.85;;;5.72;;
52104;SDS011;38103;42.776;23.112;2023-12-07T08:10:45;11.05;;;5.75;;
52104;SDS011;38103;42.776;23.112;2023-12-07T08:13:10;10.73;;;5.18;;
52104;SDS011;38103;42.776;23.112;2023-12-07T08:15:35;10.60;;;5.18;;
52104;SDS011;38103;42.776;23.112;2023-12-07T08:18:01;10.75;;;5.15;;
52104;SDS011;38103;42.776;23.112;2023-12-07T08:20:27;11.35;;;5.38;;
52104;SDS011;38103;42.776;23.112;2023-12-07T08:22:52;11.63;;;5.30;;
52104;SDS011;38103;42.776;23.112;2023-12-07T08:25:18;10.05;;;5.00;;
52104;SDS011;38103;42.776;23.112;2023-12-07T08:27:43;11.07;;;5.50;;
52104;SDS011;38103;42.776;23.112;2023-12-07T08:30:12;11.43;;;6.45;;
52104;SDS011;38103;42.776;23.112;2023-12-07T08:32:38;10.32;;;5.10;;
52104;SDS011;38103;42.776;23.112;2023-12-07T08:35:04;9.82;;;5.00;;
52104;SDS011;38103;42.776;23.112;2023-12-07T08:37:31;10.60;;;5.00;;
52104;SDS011;38103;42.776;23.112;2023-12-07T08:39:57;9.77;;;4.68;;
52104;SDS011;38103;42.776;23.112;2023-12-07T08:42:23;10.77;;;4.95;;
52104;SDS011;38103;42.776;23.112;2023-12-07T08:44:48;10.35;;;4.78;;
52104;SDS011;38103;42.776;23.112;2023-12-07T08:47:13;10.20;;;5.22;;
52104;SDS011;38103;42.776;23.112;2023-12-07T08:49:39;10.63;;;5.07;;
52104;SDS011;38103;42.776;23.112;2023-12-07T08:52:04;9.70;;;4.55;;
52104;SDS011;38103;42.776;23.112;2023-12-07T08:54:29;11.55;;;5.22;;
52104;SDS011;38103;42.776;23.112;2023-12-07T08:56:55;10.52;;;4.90;;
52104;SDS011;38103;42.776;23.112;2023-12-07T08:59:20;10.00;;;5.00;;
52104;SDS011;38103;42.776;23.112;2023-12-07T09:01:46;9.65;;;4.43;;
52104;SDS011;38103;42.776;23.112;2023-12-07T09:04:11;9.73;;;4.85;;
52104;SDS011;38103;42.776;23.112;2023-12-07T09:06:37;9.98;;;4.75;;
52104;SDS011;38103;42.776;23.112;2023-12-07T09:09:03;9.20;;;4.30;;
52104;SDS011;38103;42.776;23.112;2023-12-07T09:11:31;10.10;;;4.57;;
52104;SDS011;38103;42.776;23.112;2023-12-07T09:13:57;10.38;;;4.25;;
52104;SDS011;38103;42.776;23.112;2023-12-07T09:16:23;9.23;;;4.15;;
52104;SDS011;38103;42.776;23.112;2023-12-07T09:18:48;9.02;;;3.90;;
52104;SDS011;38103;42.776;23.112;2023-12-07T09:21:14;8.40;;;3.70;;
52104;SDS011;38103;42.776;23.112;2023-12-07T09:23:39;10.23;;;3.85;;
52104;SDS011;38103;42.776;23.112;2023-12-07T09:26:05;8.20;;;3.40;;
52104;SDS011;38103;42.776;23.112;2023-12-07T09:28:31;15.95;;;7.00;;
52104;SDS011;38103;42.776;23.112;2023-12-07T09:30:58;28.73;;;13.02;;
52104;SDS011;38103;42.776;23.112;2023-12-07T09:33:23;39.95;;;16.75;;
52104;SDS011;38103;42.776;23.112;2023-12-07T09:35:49;40.03;;;18.13;;
52104;SDS011;38103;42.776;23.112;2023-12-07T09:38:14;25.25;;;11.68;;
52104;SDS011;38103;42.776;23.112;2023-12-07T09:40:39;19.42;;;9.00;;
52104;SDS011;38103;42.776;23.112;2023-12-07T09:43:05;20.73;;;9.38;;
52104;SDS011;38103;42.776;23.112;2023-12-07T09:45:30;24.60;;;10.13;;
52104;SDS011;38103;42.776;23.112;2023-12-07T09:47:56;17.25;;;7.88;;
52104;SDS011;38103;42.776;23.112;2023-12-07T09:50:25;8.73;;;3.08;;
52104;SDS011;38103;42.776;23.112;2023-12-07T09:52:53;12.05;;;5.78;;
52104;SDS011;38103;42.776;23.112;2023-12-07T09:55:21;9.05;;;4.05;;
52104;SDS011;38103;42.776;23.112;2023-12-07T09:57:48;9.45;;;4.00;;
52104;SDS011;38103;42.776;23.112;2023-12-07T10:00:14;9.77;;;4.00;;
52104;SDS011;38103;42.776;23.112;2023-12-07T10:02:41;8.98;;;4.13;;
52104;SDS011;38103;42.776;23.112;2023-12-07T10:05:11;8.75;;;3.80;;
52104;SDS011;38103;42.776;23.112;2023-12-07T10:07:43;9.07;;;3.40;;
52104;SDS011;38103;42.776;23.112;2023-12-07T10:10:11;6.80;;;2.70;;
52104;SDS011;38103;42.776;23.112;2023-12-07T10:12:43;7.38;;;2.80;;
52104;SDS011;38103;42.776;23.112;2023-12-07T10:15:15;6.55;;;2.83;;
52104;SDS011;38103;42.776;23.112;2023-12-07T10:17:54;8.40;;;3.00;;
52104;SDS011;38103;42.776;23.112;2023-12-07T10:20:24;7.05;;;2.85;;
52104;SDS011;38103;42.776;23.112;2023-12-07T10:23:03;7.40;;;3.22;;
52104;SDS011;38103;42.776;23.112;2023-12-07T10:25:33;7.78;;;3.10;;
52104;SDS011;38103;42.776;23.112;2023-12-07T10:28:01;8.60;;;3.92;;
52104;SDS011;38103;42.776;23.112;2023-12-07T10:30:31;9.88;;;3.97;;
52104;SDS011;38103;42.776;23.112;2023-12-07T10:32:57;9.05;;;3.60;;
52104;SDS011;38103;42.776;23.112;2023-12-07T10:35:23;10.25;;;3.72;;
52104;SDS011;38103;42.776;23.112;2023-12-07T10:37:48;8.10;;;3.30;;
52104;SDS011;38103;42.776;23.112;2023-12-07T10:40:14;7.90;;;3.33;;
52104;SDS011;38103;42.776;23.112;2023-12-07T10:42:40;8.00;;;3.20;;
52104;SDS011;38103;42.776;23.112;2023-12-07T10:45:07;8.45;;;3.20;;
52104;SDS011;38103;42.776;23.112;2023-12-07T10:47:37;7.32;;;3.13;;
52104;SDS011;38103;42.776;23.112;2023-12-07T10:50:06;8.23;;;3.30;;
52104;SDS011;38103;42.776;23.112;2023-12-07T10:52:39;7.27;;;3.00;;
52104;SDS011;38103;42.776;23.112;2023-12-07T10:55:13;6.35;;;2.80;;
52104;SDS011;38103;42.776;23.112;2023-12-07T10:57:42;7.53;;;3.03;;
52104;SDS011;38103;42.776;23.112;2023-12-07T11:00:09;8.93;;;3.20;;
52104;SDS011;38103;42.776;23.112;2023-12-07T11:02:35;8.68;;;3.70;;
52104;SDS011;38103;42.776;23.112;2023-12-07T11:05:01;8.32;;;3.35;;
52104;SDS011;38103;42.776;23.112;2023-12-07T11:07:28;7.68;;;3.00;;
52104;SDS011;38103;42.776;23.112;2023-12-07T11:10:07;8.15;;;3.10;;
52104;SDS011;38103;42.776;23.112;2023-12-07T11:12:45;9.38;;;3.65;;
52104;SDS011;38103;42.776;23.112;2023-12-07T11:15:16;10.13;;;4.68;;
52104;SDS011;38103;42.776;23.112;2023-12-07T11:17:52;15.40;;;8.57;;
52104;SDS011;38103;42.776;23.112;2023-12-07T11:20:21;11.45;;;5.30;;
52104;SDS011;38103;42.776;23.112;2023-12-07T11:23:09;17.30;;;8.32;;
52104;SDS011;38103;42.776;23.112;2023-12-07T11:25:35;13.48;;;7.00;;
52104;SDS011;38103;42.776;23.112;2023-12-07T11:28:05;12.02;;;4.88;;
52104;SDS011;38103;42.776;23.112;2023-12-07T11:30:33;10.70;;;4.38;;
52104;SDS011;38103;42.776;23.112;2023-12-07T11:33:00;9.50;;;4.68;;
52104;SDS011;38103;42.776;23.112;2023-12-07T11:35:29;9.02;;;3.92;;
52104;SDS011;38103;42.776;23.112;2023-12-07T11:38:01;8.65;;;3.63;;
52104;SDS011;38103;42.776;23.112;2023-12-07T11:40:42;8.25;;;3.45;;
52104;SDS011;38103;42.776;23.112;2023-12-07T11:43:08;7.95;;;3.42;;
52104;SDS011;38103;42.776;23.112;2023-12-07T11:45:46;9.02;;;4.10;;
52104;SDS011;38103;42.776;23.112;2023-12-07T11:48:14;9.40;;;4.10;;
52104;SDS011;38103;42.776;23.112;2023-12-07T11:50:59;8.57;;;3.70;;
52104;SDS011;38103;42.776;23.112;2023-12-07T11:53:33;9.05;;;3.95;;
52104;SDS011;38103;42.776;23.112;2023-12-07T11:55:59;8.73;;;3.80;;
52104;SDS011;38103;42.776;23.112;2023-12-07T11:58:30;8.50;;;3.72;;
52104;SDS011;38103;42.776;23.112;2023-12-07T12:00:57;9.05;;;4.10;;
52104;SDS011;38103;42.776;23.112;2023-12-07T12:03:23;8.45;;;4.00;;
52104;SDS011;38103;42.776;23.112;2023-12-07T12:05:49;9.00;;;3.97;;
52104;SDS011;38103;42.776;23.112;2023-12-07T12:08:18;8.60;;;3.72;;
52104;SDS011;38103;42.776;23.112;2023-12-07T12:10:44;8.20;;;3.85;;
52104;SDS011;38103;42.776;23.112;2023-12-07T12:13:11;9.07;;;3.92;;
52104;SDS011;38103;42.776;23.112;2023-12-07T12:15:40;8.55;;;4.07;;
52104;SDS011;38103;42.776;23.112;2023-12-07T12:18:06;8.90;;;3.95;;
52104;SDS011;38103;42.776;23.112;2023-12-07T12:20:32;8.90;;;4.10;;
52104;SDS011;38103;42.776;23.112;2023-12-07T12:22:58;8.85;;;4.10;;
52104;SDS011;38103;42.776;23.112;2023-12-07T12:25:27;9.55;;;4.80;;
52104;SDS011;38103;42.776;23.112;2023-12-07T12:27:55;9.45;;;4.20;;
52104;SDS011;38103;42.776;23.112;2023-12-07T12:30:22;9.73;;;4.68;;
52104;SDS011;38103;42.776;23.112;2023-12-07T12:32:49;9.68;;;4.85;;
52104;SDS011;38103;42.776;23.112;2023-12-07T12:35:15;9.38;;;4.38;;
52104;SDS011;38103;42.776;23.112;2023-12-07T12:37:42;10.73;;;5.35;;
52104;SDS011;38103;42.776;23.112;2023-12-07T12:40:08;10.00;;;5.07;;
52104;SDS011;38103;42.776;23.112;2023-12-07T12:42:42;10.20;;;4.60;;
52104;SDS011;38103;42.776;23.112;2023-12-07T12:45:08;10.65;;;5.55;;
52104;SDS011;38103;42.776;23.112;2023-12-07T12:47:35;12.02;;;5.45;;
52104;SDS011;38103;42.776;23.112;2023-12-07T12:50:01;10.35;;;5.47;;
52104;SDS011;38103;42.776;23.112;2023-12-07T12:52:29;10.95;;;5.97;;
52104;SDS011;38103;42.776;23.112;2023-12-07T12:54:55;11.35;;;6.32;;
52104;SDS011;38103;42.776;23.112;2023-12-07T12:57:21;10.45;;;5.80;;
52104;SDS011;38103;42.776;23.112;2023-12-07T12:59:47;10.15;;;5.28;;
52104;SDS011;38103;42.776;23.112;2023-12-07T13:02:13;11.32;;;6.30;;
52104;SDS011;38103;42.776;23.112;2023-12-07T13:04:39;12.85;;;6.15;;
52104;SDS011;38103;42.776;23.112;2023-12-07T13:07:08;11.30;;;6.05;;
52104;SDS011;38103;42.776;23.112;2023-12-07T13:09:34;14.48;;;7.68;;
52104;SDS011;38103;42.776;23.112;2023-12-07T13:11:59;11.40;;;6.05;;
52104;SDS011;38103;42.776;23.112;2023-12-07T13:14:25;16.40;;;10.15;;
52104;SDS011;38103;42.776;23.112;2023-12-07T13:16:50;14.27;;;8.07;;
52104;SDS011;38103;42.776;23.112;2023-12-07T13:19:15;12.05;;;6.72;;
52104;SDS011;38103;42.776;23.112;2023-12-07T13:21:41;11.95;;;7.28;;
52104;SDS011;38103;42.776;23.112;2023-12-07T13:24:07;10.95;;;6.15;;
52104;SDS011;38103;42.776;23.112;2023-12-07T13:26:37;11.27;;;6.15;;
52104;SDS011;38103;42.776;23.112;2023-12-07T13:29:06;11.77;;;6.32;;
52104;SDS011;38103;42.776;23.112;2023-12-07T13:31:32;15.52;;;6.45;;
52104;SDS011;38103;42.776;23.112;2023-12-07T13:33:58;10.77;;;6.10;;
52104;SDS011;38103;42.776;23.112;2023-12-07T13:36:24;12.60;;;7.55;;
52104;SDS011;38103;42.776;23.112;2023-12-07T13:38:51;15.70;;;8.38;;
52104;SDS011;38103;42.776;23.112;2023-12-07T13:41:16;13.70;;;8.38;;
52104;SDS011;38103;42.776;23.112;2023-12-07T13:43:42;13.50;;;7.78;;
52104;SDS011;38103;42.776;23.112;2023-12-07T13:46:09;12.98;;;7.55;;
52104;SDS011;38103;42.776;23.112;2023-12-07T13:48:35;13.38;;;8.05;;
52104;SDS011;38103;42.776;23.112;2023-12-07T13:51:00;13.95;;;8.07;;
52104;SDS011;38103;42.776;23.112;2023-12-07T13:53:27;13.70;;;8.13;;
52104;SDS011;38103;42.776;23.112;2023-12-07T13:55:52;15.57;;;8.85;;
52104;SDS011;38103;42.776;23.112;2023-12-07T13:58:18;13.82;;;8.27;;
52104;SDS011;38103;42.776;23.112;2023-12-07T14:00:43;12.93;;;7.95;;
52104;SDS011;38103;42.776;23.112;2023-12-07T14:03:10;15.77;;;8.93;;
52104;SDS011;38103;42.776;23.112;2023-12-07T14:05:36;18.08;;;10.18;;
52104;SDS011;38103;42.776;23.112;2023-12-07T14:08:03;20.23;;;10.70;;
52104;SDS011;38103;42.776;23.112;2023-12-07T14:10:28;15.38;;;9.35;;
52104;SDS011;38103;42.776;23.112;2023-12-07T14:12:53;16.63;;;10.05;;
52104;SDS011;38103;42.776;23.112;2023-12-07T14:15:19;15.48;;;9.20;;
52104;SDS011;38103;42.776;23.112;2023-12-07T14:17:44;17.33;;;11.02;;